createdAt,value
2018-11-10T00:01:01.546Z,997.09
2018-11-10T00:02:07.056Z,997.08
2018-11-10T00:03:12.566Z,997.06
2018-11-10T00:04:19.211Z,997.09
2018-11-10T00:05:23.596Z,997.06
2018-11-10T00:06:29.103Z,997.06
2018-11-10T00:07:34.677Z,997.07
2018-11-10T00:08:40.124Z,997.09
2018-11-10T00:09:45.641Z,997.04
2018-11-10T00:10:52.168Z,997.05
2018-11-10T00:11:56.660Z,997.03
2018-11-10T00:13:02.171Z,997.01
2018-11-10T00:14:07.692Z,997.02
2018-11-10T00:15:13.780Z,997.02
2018-11-10T00:16:18.728Z,996.97
2018-11-10T00:17:25.266Z,996.99
2018-11-10T00:18:29.737Z,996.97
2018-11-10T00:19:35.256Z,997.02
2018-11-10T00:20:40.767Z,996.96
2018-11-10T00:21:46.287Z,996.98
2018-11-10T00:22:51.823Z,996.96
2018-11-10T00:23:58.327Z,996.96
2018-11-10T00:25:02.810Z,996.92
2018-11-10T00:26:08.333Z,996.94
2018-11-10T00:27:13.833Z,996.88
2018-11-10T00:28:19.353Z,996.86
2018-11-10T00:29:24.870Z,996.90
2018-11-10T00:30:31.392Z,996.86
2018-11-10T00:31:35.894Z,996.81
2018-11-10T00:32:41.401Z,996.81
2018-11-10T00:33:46.926Z,996.75
2018-11-10T00:34:52.509Z,996.73
2018-11-10T00:35:57.932Z,996.66
2018-11-10T00:37:04.459Z,996.64
2018-11-10T00:38:08.964Z,996.66
2018-11-10T00:39:14.474Z,996.65
2018-11-10T00:40:19.988Z,996.67
2018-11-10T00:41:25.502Z,996.67
2018-11-10T00:42:31.011Z,996.64
2018-11-10T00:43:37.537Z,996.63
2018-11-10T00:44:42.036Z,996.58
2018-11-10T00:45:47.550Z,996.53
2018-11-10T00:46:53.060Z,996.56
2018-11-10T00:47:58.573Z,996.60
2018-11-10T00:49:04.086Z,996.59
2018-11-10T00:50:10.612Z,996.55
2018-11-10T00:51:15.113Z,996.54
2018-11-10T00:52:20.628Z,996.56
2018-11-10T00:53:26.135Z,996.57
2018-11-10T00:54:31.649Z,996.54
2018-11-10T00:55:37.163Z,996.55
2018-11-10T00:56:43.685Z,996.48
2018-11-10T00:57:48.190Z,996.54
2018-11-10T00:58:53.700Z,996.55
2018-11-10T00:59:59.215Z,996.55
2018-11-10T01:01:04.727Z,996.51
2018-11-10T01:02:10.236Z,996.51
2018-11-10T01:03:16.760Z,996.48
2018-11-10T01:04:21.259Z,996.52
2018-11-10T01:05:26.798Z,996.50
2018-11-10T01:06:32.287Z,996.46
2018-11-10T01:07:37.801Z,996.48
2018-11-10T01:08:43.312Z,996.44
2018-11-10T01:09:49.850Z,996.45
2018-11-10T01:10:54.342Z,996.40
2018-11-10T01:11:59.858Z,996.40
2018-11-10T01:13:05.364Z,996.40
2018-11-10T01:14:10.877Z,996.42
2018-11-10T01:15:16.389Z,996.38
2018-11-10T01:16:22.928Z,996.43
2018-11-10T01:17:27.409Z,996.36
2018-11-10T01:18:32.925Z,996.34
2018-11-10T01:19:38.436Z,996.35
2018-11-10T01:20:43.950Z,996.37
2018-11-10T01:21:49.462Z,996.30
2018-11-10T01:22:55.983Z,996.36
2018-11-10T01:24:00.487Z,996.31
2018-11-10T01:25:06.004Z,996.29
2018-11-10T01:26:11.513Z,996.30
2018-11-10T01:27:17.025Z,996.30
2018-11-10T01:28:22.537Z,996.29
2018-11-10T01:29:29.062Z,996.30
2018-11-10T01:30:33.563Z,996.28
2018-11-10T01:31:39.072Z,996.27
2018-11-10T01:32:44.588Z,996.25
2018-11-10T01:33:50.111Z,996.27
2018-11-10T01:34:55.611Z,996.17
2018-11-10T01:36:02.137Z,996.15
2018-11-10T01:37:06.666Z,996.10
2018-11-10T01:38:12.154Z,996.10
2018-11-10T01:39:17.664Z,996.06
2018-11-10T01:40:23.178Z,996.04
2018-11-10T01:41:28.688Z,996.00
2018-11-10T01:42:35.213Z,996.00
2018-11-10T01:43:39.709Z,995.98
2018-11-10T01:44:45.235Z,995.99
2018-11-10T01:45:50.736Z,995.99
2018-11-10T01:46:56.251Z,995.92
2018-11-10T01:48:01.769Z,995.90
2018-11-10T01:49:08.286Z,995.93
2018-11-10T01:50:12.787Z,995.93
2018-11-10T01:51:18.296Z,995.89
2018-11-10T01:52:23.816Z,995.84
2018-11-10T01:53:29.326Z,995.83
2018-11-10T01:54:34.844Z,995.84
2018-11-10T01:55:41.361Z,995.82
2018-11-10T01:56:45.865Z,995.74
2018-11-10T01:57:51.377Z,995.72
2018-11-10T01:58:56.889Z,995.72
2018-11-10T02:00:02.400Z,995.63
2018-11-10T02:01:07.916Z,995.65
2018-11-10T02:02:14.436Z,995.60
2018-11-10T02:03:18.940Z,995.61
2018-11-10T02:04:24.462Z,995.55
2018-11-10T02:05:29.965Z,995.52
2018-11-10T02:06:35.500Z,995.50
2018-11-10T02:07:40.999Z,995.51
2018-11-10T02:08:47.513Z,995.42
2018-11-10T02:09:52.012Z,995.43
2018-11-10T02:10:57.532Z,995.41
2018-11-10T02:12:03.038Z,995.36
2018-11-10T02:13:08.560Z,995.35
2018-11-10T02:14:14.068Z,995.32
2018-11-10T02:15:20.642Z,995.28
2018-11-10T02:16:25.086Z,995.31
2018-11-10T02:17:30.603Z,995.33
2018-11-10T02:18:36.114Z,995.31
2018-11-10T02:19:41.622Z,995.30
2018-11-10T02:20:47.140Z,995.34
2018-11-10T02:21:53.661Z,995.29
2018-11-10T02:22:58.159Z,995.35
2018-11-10T02:24:03.680Z,995.35
2018-11-10T02:25:09.190Z,995.34
2018-11-10T02:26:14.701Z,995.36
2018-11-10T02:27:20.215Z,995.37
2018-11-10T02:28:26.738Z,995.30
2018-11-10T02:29:31.241Z,995.33
2018-11-10T02:30:36.749Z,995.32
2018-11-10T02:31:42.260Z,995.32
2018-11-10T02:32:47.777Z,995.29
2018-11-10T02:33:53.294Z,995.29
2018-11-10T02:34:59.812Z,995.21
2018-11-10T02:36:04.314Z,995.17
2018-11-10T02:37:09.822Z,995.15
2018-11-10T02:38:15.339Z,995.12
2018-11-10T02:39:20.851Z,995.05
2018-11-10T02:40:26.362Z,995.11
2018-11-10T02:41:32.890Z,995.10
2018-11-10T02:42:37.392Z,995.07
2018-11-10T02:43:42.900Z,995.05
2018-11-10T02:44:48.413Z,994.99
2018-11-10T02:45:53.925Z,994.98
2018-11-10T02:46:59.441Z,994.96
2018-11-10T02:48:05.965Z,994.90
2018-11-10T02:49:10.465Z,994.96
2018-11-10T02:50:15.978Z,994.89
2018-11-10T02:51:21.491Z,994.86
2018-11-10T02:52:27.003Z,994.87
2018-11-10T02:53:32.515Z,994.85
2018-11-10T02:54:39.038Z,994.78
2018-11-10T02:55:43.538Z,994.76
2018-11-10T02:56:49.049Z,994.70
2018-11-10T02:57:54.565Z,994.73
2018-11-10T02:59:00.084Z,994.73
2018-11-10T03:00:05.591Z,994.67
2018-11-10T03:01:12.114Z,994.63
2018-11-10T03:02:16.613Z,994.73
2018-11-10T03:03:22.128Z,994.74
2018-11-10T03:04:27.639Z,994.63
2018-11-10T03:05:33.156Z,994.67
2018-11-10T03:06:38.666Z,994.67
2018-11-10T03:07:45.188Z,994.64
2018-11-10T03:08:49.692Z,994.69
2018-11-10T03:09:55.204Z,994.66
2018-11-10T03:11:00.719Z,994.54
2018-11-10T03:12:06.225Z,994.64
2018-11-10T03:13:11.745Z,994.60
2018-11-10T03:14:18.266Z,994.57
2018-11-10T03:15:22.803Z,994.51
2018-11-10T03:16:28.305Z,994.50
2018-11-10T03:17:33.793Z,994.52
2018-11-10T03:18:39.303Z,994.53
2018-11-10T03:19:44.821Z,994.51
2018-11-10T03:20:51.343Z,994.46
2018-11-10T03:21:55.840Z,994.56
2018-11-10T03:23:01.356Z,994.61
2018-11-10T03:24:06.863Z,994.56
2018-11-10T03:25:12.395Z,994.54
2018-11-10T03:26:17.895Z,994.42
2018-11-10T03:27:24.417Z,994.51
2018-11-10T03:28:28.919Z,994.58
2018-11-10T03:29:34.434Z,994.50
2018-11-10T03:30:39.944Z,994.50
2018-11-10T03:31:45.454Z,994.52
2018-11-10T03:32:50.966Z,994.58
2018-11-10T03:33:57.492Z,994.51
2018-11-10T03:35:02.003Z,994.45
2018-11-10T03:36:07.510Z,994.51
2018-11-10T03:37:13.019Z,994.46
2018-11-10T03:38:18.537Z,994.42
2018-11-10T03:39:24.045Z,994.43
2018-11-10T03:40:30.573Z,994.42
2018-11-10T03:41:35.071Z,994.43
2018-11-10T03:42:40.586Z,994.52
2018-11-10T03:43:46.098Z,994.43
2018-11-10T03:44:51.615Z,994.40
2018-11-10T03:45:57.125Z,994.39
2018-11-10T03:47:03.650Z,994.39
2018-11-10T03:48:08.149Z,994.35
2018-11-10T03:49:13.664Z,994.34
2018-11-10T03:50:19.176Z,994.39
2018-11-10T03:51:24.695Z,994.38
2018-11-10T03:52:30.201Z,994.33
2018-11-10T03:53:36.729Z,994.38
2018-11-10T03:54:41.229Z,994.37
2018-11-10T03:55:46.747Z,994.33
2018-11-10T03:56:52.255Z,994.27
2018-11-10T03:57:57.825Z,994.31
2018-11-10T03:59:03.287Z,994.21
2018-11-10T04:00:09.805Z,994.27
2018-11-10T04:01:14.308Z,994.20
2018-11-10T04:02:19.821Z,994.20
2018-11-10T04:03:25.331Z,994.28
2018-11-10T04:04:30.858Z,994.23
2018-11-10T04:05:36.354Z,994.19
2018-11-10T04:06:42.881Z,994.20
2018-11-10T04:07:47.387Z,994.17
2018-11-10T04:08:52.900Z,994.05
2018-11-10T04:09:58.414Z,994.13
2018-11-10T04:11:03.922Z,994.10
2018-11-10T04:12:09.444Z,994.08
2018-11-10T04:13:15.963Z,994.05
2018-11-10T04:14:20.463Z,994.06
2018-11-10T04:15:25.975Z,994.11
2018-11-10T04:16:31.488Z,993.99
2018-11-10T04:17:37.003Z,994.03
2018-11-10T04:18:42.514Z,993.94
2018-11-10T04:19:49.036Z,993.96
2018-11-10T04:20:53.541Z,993.97
2018-11-10T04:21:59.053Z,993.99
2018-11-10T04:23:04.566Z,993.99
2018-11-10T04:24:10.078Z,993.88
2018-11-10T04:25:15.596Z,993.91
2018-11-10T04:26:22.115Z,993.96
2018-11-10T04:27:26.617Z,993.90
2018-11-10T04:28:32.133Z,993.85
2018-11-10T04:29:37.645Z,993.90
2018-11-10T04:30:43.156Z,993.85
2018-11-10T04:31:48.679Z,993.83
2018-11-10T04:32:55.197Z,993.74
2018-11-10T04:33:59.696Z,993.77
2018-11-10T04:35:05.210Z,993.76
2018-11-10T04:36:10.727Z,993.72
2018-11-10T04:37:16.236Z,993.73
2018-11-10T04:38:21.748Z,993.68
2018-11-10T04:39:28.272Z,993.68
2018-11-10T04:40:32.778Z,993.64
2018-11-10T04:41:38.290Z,993.71
2018-11-10T04:42:43.803Z,993.68
2018-11-10T04:43:49.319Z,993.56
2018-11-10T04:44:54.824Z,993.61
2018-11-10T04:46:01.353Z,993.55
2018-11-10T04:47:05.855Z,993.61
2018-11-10T04:48:11.368Z,993.60
2018-11-10T04:49:16.880Z,993.59
2018-11-10T04:50:22.394Z,993.53
2018-11-10T04:51:27.903Z,993.52
2018-11-10T04:52:34.426Z,993.56
2018-11-10T04:53:38.938Z,993.46
2018-11-10T04:54:44.446Z,993.50
2018-11-10T04:55:49.960Z,993.52
2018-11-10T04:56:55.469Z,993.48
2018-11-10T04:58:00.983Z,993.48
2018-11-10T04:59:07.510Z,993.41
2018-11-10T05:00:12.010Z,993.42
2018-11-10T05:01:17.529Z,993.41
2018-11-10T05:02:23.047Z,993.36
2018-11-10T05:03:28.551Z,993.35
2018-11-10T05:04:34.065Z,993.41
2018-11-10T05:05:40.588Z,993.43
2018-11-10T05:06:45.091Z,993.40
2018-11-10T05:07:50.608Z,993.40
2018-11-10T05:08:56.117Z,993.44
2018-11-10T05:10:01.631Z,993.37
2018-11-10T05:11:07.142Z,993.42
2018-11-10T05:12:13.668Z,993.37
2018-11-10T05:13:18.171Z,993.42
2018-11-10T05:14:23.682Z,993.38
2018-11-10T05:15:29.205Z,993.43
2018-11-10T05:16:34.708Z,993.38
2018-11-10T05:17:40.230Z,993.43
2018-11-10T05:18:46.755Z,993.39
2018-11-10T05:19:51.249Z,993.43
2018-11-10T05:20:56.773Z,993.48
2018-11-10T05:22:02.271Z,993.41
2018-11-10T05:23:07.787Z,993.40
2018-11-10T05:24:13.302Z,993.44
2018-11-10T05:25:19.828Z,993.39
2018-11-10T05:26:24.325Z,993.36
2018-11-10T05:27:29.839Z,993.39
2018-11-10T05:28:35.358Z,993.28
2018-11-10T05:29:40.869Z,993.35
2018-11-10T05:30:46.382Z,993.26
2018-11-10T05:31:52.902Z,993.37
2018-11-10T05:32:57.409Z,993.34
2018-11-10T05:34:02.924Z,993.30
2018-11-10T05:35:08.437Z,993.40
2018-11-10T05:36:13.949Z,993.41
2018-11-10T05:37:19.463Z,993.46
2018-11-10T05:38:25.986Z,993.42
2018-11-10T05:39:30.491Z,993.43
2018-11-10T05:40:36.003Z,993.50
2018-11-10T05:41:41.512Z,993.44
2018-11-10T05:42:47.024Z,993.36
2018-11-10T05:43:52.540Z,993.42
2018-11-10T05:44:59.063Z,993.43
2018-11-10T05:46:03.565Z,993.49
2018-11-10T05:47:09.082Z,993.36
2018-11-10T05:48:14.593Z,993.40
2018-11-10T05:49:20.104Z,993.43
2018-11-10T05:50:25.621Z,993.34
2018-11-10T05:51:32.141Z,993.40
2018-11-10T05:52:36.647Z,993.28
2018-11-10T05:53:42.165Z,993.24
2018-11-10T05:54:47.681Z,993.23
2018-11-10T05:55:53.186Z,993.28
2018-11-10T05:56:58.702Z,993.36
2018-11-10T05:58:05.225Z,993.35
2018-11-10T05:59:09.726Z,993.44
2018-11-10T06:00:15.239Z,993.52
2018-11-10T06:01:20.751Z,993.41
2018-11-10T06:02:26.267Z,993.42
2018-11-10T06:03:31.779Z,993.49
2018-11-10T06:04:38.303Z,993.51
2018-11-10T06:05:42.805Z,993.41
2018-11-10T06:06:48.320Z,993.42
2018-11-10T06:07:53.831Z,993.47
2018-11-10T06:08:59.392Z,993.38
2018-11-10T06:10:05.018Z,993.46
2018-11-10T06:11:11.388Z,993.46
2018-11-10T06:12:15.888Z,993.49
2018-11-10T06:13:21.399Z,993.46
2018-11-10T06:14:26.912Z,993.61
2018-11-10T06:15:32.428Z,993.55
2018-11-10T06:16:37.943Z,993.65
2018-11-10T06:17:44.465Z,993.58
2018-11-10T06:18:48.995Z,993.60
2018-11-10T06:19:54.479Z,993.59
2018-11-10T06:20:59.992Z,993.62
2018-11-10T06:22:05.508Z,993.76
2018-11-10T06:23:11.020Z,993.71
2018-11-10T06:24:17.548Z,993.67
2018-11-10T06:25:22.053Z,993.70
2018-11-10T06:26:27.559Z,993.65
2018-11-10T06:27:33.075Z,993.75
2018-11-10T06:28:38.581Z,993.68
2018-11-10T06:29:44.100Z,993.75
2018-11-10T06:30:50.626Z,993.74
2018-11-10T06:31:55.131Z,993.78
2018-11-10T06:33:00.646Z,993.85
2018-11-10T06:34:06.152Z,993.71
2018-11-10T06:35:11.663Z,993.80
2018-11-10T06:36:17.177Z,993.79
2018-11-10T06:37:23.703Z,993.93
2018-11-10T06:38:28.207Z,993.81
2018-11-10T06:39:33.718Z,993.76
2018-11-10T06:40:39.233Z,993.83
2018-11-10T06:41:44.752Z,993.75
2018-11-10T06:42:50.254Z,993.83
2018-11-10T06:43:56.783Z,993.87
2018-11-10T06:45:01.285Z,993.82
2018-11-10T06:46:06.798Z,993.95
2018-11-10T06:47:12.316Z,993.82
2018-11-10T06:48:17.830Z,993.84
2018-11-10T06:49:23.340Z,993.82
2018-11-10T06:50:29.860Z,993.84
2018-11-10T06:51:34.359Z,993.88
2018-11-10T06:52:39.885Z,993.85
2018-11-10T06:53:45.386Z,993.89
2018-11-10T06:54:50.905Z,993.82
2018-11-10T06:55:56.413Z,993.87
2018-11-10T06:57:02.935Z,993.84
2018-11-10T06:58:07.446Z,993.83
2018-11-10T06:59:12.948Z,993.84
2018-11-10T07:00:18.469Z,993.80
2018-11-10T07:01:23.978Z,993.78
2018-11-10T07:02:29.492Z,993.77
2018-11-10T07:03:36.014Z,993.76
2018-11-10T07:04:40.514Z,993.76
2018-11-10T07:05:46.027Z,993.78
2018-11-10T07:06:51.539Z,993.85
2018-11-10T07:07:57.059Z,993.81
2018-11-10T07:09:02.564Z,993.83
2018-11-10T07:10:09.089Z,993.83
2018-11-10T07:11:13.593Z,993.85
2018-11-10T07:12:19.117Z,993.84
2018-11-10T07:13:24.622Z,993.76
2018-11-10T07:14:30.129Z,993.75
2018-11-10T07:15:35.644Z,993.80
2018-11-10T07:16:42.163Z,993.81
2018-11-10T07:17:46.696Z,993.88
2018-11-10T07:18:52.190Z,993.86
2018-11-10T07:19:57.694Z,993.85
2018-11-10T07:21:03.204Z,993.90
2018-11-10T07:22:08.719Z,993.92
2018-11-10T07:23:15.243Z,993.92
2018-11-10T07:24:19.744Z,993.92
2018-11-10T07:25:25.258Z,993.95
2018-11-10T07:26:30.771Z,993.95
2018-11-10T07:27:36.278Z,994.09
2018-11-10T07:28:41.793Z,994.04
2018-11-10T07:29:48.318Z,994.01
2018-11-10T07:30:52.820Z,994.10
2018-11-10T07:31:58.398Z,994.10
2018-11-10T07:33:03.883Z,994.09
2018-11-10T07:34:09.359Z,994.18
2018-11-10T07:35:14.871Z,994.11
2018-11-10T07:36:21.394Z,994.04
2018-11-10T07:37:25.927Z,994.09
2018-11-10T07:38:31.405Z,994.01
2018-11-10T07:39:36.923Z,994.06
2018-11-10T07:40:42.433Z,994.08
2018-11-10T07:41:47.946Z,994.09
2018-11-10T07:42:54.489Z,994.11
2018-11-10T07:43:58.976Z,994.07
2018-11-10T07:45:04.480Z,994.16
2018-11-10T07:46:09.994Z,994.22
2018-11-10T07:47:15.508Z,994.19
2018-11-10T07:48:21.022Z,994.23
2018-11-10T07:49:27.601Z,994.24
2018-11-10T07:50:32.046Z,994.24
2018-11-10T07:51:37.556Z,994.25
2018-11-10T07:52:43.073Z,994.27
2018-11-10T07:53:48.584Z,994.19
2018-11-10T07:54:54.092Z,994.20
2018-11-10T07:56:00.674Z,994.22
2018-11-10T07:57:05.119Z,994.24
2018-11-10T07:58:10.629Z,994.19
2018-11-10T07:59:16.144Z,994.14
2018-11-10T08:00:21.653Z,994.18
2018-11-10T08:01:27.174Z,994.16
2018-11-10T08:02:33.690Z,994.09
2018-11-10T08:03:38.190Z,994.22
2018-11-10T08:04:43.708Z,994.10
2018-11-10T08:05:49.218Z,994.05
2018-11-10T08:06:54.737Z,994.10
2018-11-10T08:08:00.244Z,994.08
2018-11-10T08:09:06.769Z,994.10
2018-11-10T08:10:11.274Z,994.10
2018-11-10T08:11:16.787Z,994.09
2018-11-10T08:12:22.295Z,994.15
2018-11-10T08:13:27.807Z,994.16
2018-11-10T08:14:33.317Z,994.15
2018-11-10T08:15:39.837Z,994.15
2018-11-10T08:16:44.354Z,994.09
2018-11-10T08:17:49.853Z,994.02
2018-11-10T08:18:55.370Z,994.05
2018-11-10T08:20:00.880Z,994.07
2018-11-10T08:21:06.393Z,994.11
2018-11-10T08:22:12.916Z,994.18
2018-11-10T08:23:17.415Z,994.14
2018-11-10T08:24:22.929Z,994.01
2018-11-10T08:25:28.440Z,994.05
2018-11-10T08:26:33.954Z,994.08
2018-11-10T08:27:39.464Z,994.07
2018-11-10T08:28:45.991Z,994.08
2018-11-10T08:29:50.499Z,994.06
2018-11-10T08:30:56.038Z,994.10
2018-11-10T08:32:01.516Z,994.17
2018-11-10T08:33:07.030Z,994.04
2018-11-10T08:34:12.540Z,994.14
2018-11-10T08:35:19.060Z,994.16
2018-11-10T08:36:23.560Z,994.15
2018-11-10T08:37:29.074Z,994.19
2018-11-10T08:38:34.597Z,994.18
2018-11-10T08:39:40.103Z,994.15
2018-11-10T08:40:45.612Z,994.16
2018-11-10T08:41:52.140Z,994.16
2018-11-10T08:42:56.640Z,994.22
2018-11-10T08:44:02.151Z,994.28
2018-11-10T08:45:07.668Z,994.21
2018-11-10T08:46:13.178Z,994.05
2018-11-10T08:47:18.688Z,994.11
2018-11-10T08:48:25.217Z,994.18
2018-11-10T08:49:29.716Z,994.13
2018-11-10T08:50:35.226Z,994.16
2018-11-10T08:51:40.739Z,994.19
2018-11-10T08:52:46.254Z,994.17
2018-11-10T08:53:51.766Z,994.22
2018-11-10T08:54:58.287Z,994.21
2018-11-10T08:56:02.791Z,994.15
2018-11-10T08:57:08.299Z,994.18
2018-11-10T08:58:13.814Z,994.14
2018-11-10T08:59:19.423Z,994.10
2018-11-10T09:00:24.839Z,994.12
2018-11-10T09:01:31.365Z,994.19
2018-11-10T09:02:35.867Z,994.15
2018-11-10T09:03:41.376Z,994.20
2018-11-10T09:04:46.887Z,994.20
2018-11-10T09:05:52.398Z,994.18
2018-11-10T09:06:57.911Z,994.19
2018-11-10T09:08:04.433Z,994.18
2018-11-10T09:09:08.955Z,994.34
2018-11-10T09:10:14.459Z,994.29
2018-11-10T09:11:19.970Z,994.36
2018-11-10T09:12:25.477Z,994.38
2018-11-10T09:13:30.994Z,994.40
2018-11-10T09:14:37.508Z,994.37
2018-11-10T09:15:42.010Z,994.36
2018-11-10T09:16:47.528Z,994.41
2018-11-10T09:17:53.131Z,994.37
2018-11-10T09:18:58.553Z,994.38
2018-11-10T09:20:04.064Z,994.34
2018-11-10T09:21:10.619Z,994.35
2018-11-10T09:22:15.094Z,994.36
2018-11-10T09:23:20.607Z,994.43
2018-11-10T09:24:26.110Z,994.41
2018-11-10T09:25:31.625Z,994.47
2018-11-10T09:26:37.136Z,994.47
2018-11-10T09:27:43.660Z,994.51
2018-11-10T09:28:48.160Z,994.58
2018-11-10T09:29:53.670Z,994.47
2018-11-10T09:30:59.279Z,994.45
2018-11-10T09:32:04.696Z,994.49
2018-11-10T09:33:10.212Z,994.52
2018-11-10T09:34:16.735Z,994.44
2018-11-10T09:35:21.240Z,994.55
2018-11-10T09:36:26.806Z,994.50
2018-11-10T09:37:32.271Z,994.53
2018-11-10T09:38:37.778Z,994.58
2018-11-10T09:39:43.288Z,994.55
2018-11-10T09:40:49.819Z,994.59
2018-11-10T09:41:54.352Z,994.67
2018-11-10T09:42:59.823Z,994.60
2018-11-10T09:44:05.341Z,994.59
2018-11-10T09:45:10.848Z,994.64
2018-11-10T09:46:16.375Z,994.58
2018-11-10T09:47:22.890Z,994.59
2018-11-10T09:48:27.395Z,994.62
2018-11-10T09:49:32.912Z,994.64
2018-11-10T09:50:38.444Z,994.64
2018-11-10T09:51:43.927Z,994.62
2018-11-10T09:52:49.441Z,994.64
2018-11-10T09:53:55.975Z,994.64
2018-11-10T09:55:00.467Z,994.62
2018-11-10T09:56:05.984Z,994.62
2018-11-10T09:57:11.491Z,994.57
2018-11-10T09:58:17.003Z,994.53
2018-11-10T09:59:22.517Z,994.61
2018-11-10T10:00:29.040Z,994.51
2018-11-10T10:01:33.651Z,994.54
2018-11-10T10:02:39.409Z,994.62
2018-11-10T10:03:44.578Z,994.60
2018-11-10T10:04:50.078Z,994.58
2018-11-10T10:05:55.593Z,994.59
2018-11-10T10:07:02.125Z,994.54
2018-11-10T10:08:06.618Z,994.51
2018-11-10T10:09:12.139Z,994.54
2018-11-10T10:10:17.646Z,994.49
2018-11-10T10:11:23.158Z,994.44
2018-11-10T10:12:28.682Z,994.40
2018-11-10T10:13:35.195Z,994.42
2018-11-10T10:14:39.696Z,994.35
2018-11-10T10:15:45.219Z,994.40
2018-11-10T10:16:50.721Z,994.34
2018-11-10T10:17:56.232Z,994.37
2018-11-10T10:19:01.751Z,994.33
2018-11-10T10:20:08.275Z,994.43
2018-11-10T10:21:12.773Z,994.43
2018-11-10T10:22:18.287Z,994.47
2018-11-10T10:23:23.806Z,994.44
2018-11-10T10:24:29.313Z,994.45
2018-11-10T10:25:34.833Z,994.47
2018-11-10T10:26:41.346Z,994.52
2018-11-10T10:27:45.857Z,994.55
2018-11-10T10:28:51.387Z,994.45
2018-11-10T10:29:56.878Z,994.45
2018-11-10T10:31:02.389Z,994.52
2018-11-10T10:32:07.902Z,994.49
2018-11-10T10:33:14.464Z,994.51
2018-11-10T10:34:18.966Z,994.43
2018-11-10T10:35:24.546Z,994.51
2018-11-10T10:36:29.959Z,994.49
2018-11-10T10:37:35.466Z,994.48
2018-11-10T10:38:40.980Z,994.53
2018-11-10T10:39:47.510Z,994.52
2018-11-10T10:40:52.006Z,994.50
2018-11-10T10:41:57.514Z,994.48
2018-11-10T10:43:03.094Z,994.53
2018-11-10T10:44:08.547Z,994.48
2018-11-10T10:45:14.069Z,994.46
2018-11-10T10:46:20.580Z,994.51
2018-11-10T10:47:25.082Z,994.53
2018-11-10T10:48:30.694Z,994.43
2018-11-10T10:49:36.108Z,994.48
2018-11-10T10:50:41.631Z,994.47
2018-11-10T10:51:47.136Z,994.45
2018-11-10T10:52:53.658Z,994.46
2018-11-10T10:53:58.161Z,994.42
2018-11-10T10:55:03.673Z,994.41
2018-11-10T10:56:09.261Z,994.39
2018-11-10T10:57:14.765Z,994.41
2018-11-10T10:58:20.213Z,994.37
2018-11-10T10:59:26.734Z,994.43
2018-11-10T11:00:31.238Z,994.36
2018-11-10T11:01:36.750Z,994.35
2018-11-10T11:02:42.266Z,994.41
2018-11-10T11:03:47.778Z,994.36
2018-11-10T11:04:53.290Z,994.41
2018-11-10T11:05:59.819Z,994.36
2018-11-10T11:07:04.316Z,994.43
2018-11-10T11:08:09.828Z,994.40
2018-11-10T11:09:15.342Z,994.41
2018-11-10T11:10:20.862Z,994.40
2018-11-10T11:11:26.375Z,994.41
2018-11-10T11:12:32.897Z,994.40
2018-11-10T11:13:37.394Z,994.43
2018-11-10T11:14:42.919Z,994.44
2018-11-10T11:15:48.489Z,994.43
2018-11-10T11:16:53.936Z,994.46
2018-11-10T11:17:59.453Z,994.44
2018-11-10T11:19:05.975Z,994.45
2018-11-10T11:20:10.490Z,994.41
2018-11-10T11:21:15.991Z,994.46
2018-11-10T11:22:21.503Z,994.46
2018-11-10T11:23:27.024Z,994.48
2018-11-10T11:24:32.532Z,994.43
2018-11-10T11:25:39.062Z,994.42
2018-11-10T11:26:43.561Z,994.46
2018-11-10T11:27:49.069Z,994.44
2018-11-10T11:28:54.585Z,994.43
2018-11-10T11:30:00.126Z,994.53
2018-11-10T11:31:05.667Z,994.37
2018-11-10T11:32:12.144Z,994.44
2018-11-10T11:33:16.641Z,994.40
2018-11-10T11:34:22.154Z,994.39
2018-11-10T11:35:27.782Z,994.40
2018-11-10T11:36:33.172Z,994.31
2018-11-10T11:37:38.687Z,994.37
2018-11-10T11:38:45.217Z,994.31
2018-11-10T11:39:49.718Z,994.36
2018-11-10T11:40:55.237Z,994.33
2018-11-10T11:42:00.742Z,994.30
2018-11-10T11:43:06.261Z,994.38
2018-11-10T11:44:11.770Z,994.36
2018-11-10T11:45:18.300Z,994.28
2018-11-10T11:46:22.796Z,994.29
2018-11-10T11:47:28.314Z,994.27
2018-11-10T11:48:33.817Z,994.22
2018-11-10T11:49:39.340Z,994.23
2018-11-10T11:50:44.850Z,994.28
2018-11-10T11:51:51.372Z,994.14
2018-11-10T11:52:55.888Z,994.18
2018-11-10T11:54:01.389Z,994.22
2018-11-10T11:55:06.900Z,994.21
2018-11-10T11:56:12.416Z,994.11
2018-11-10T11:57:17.928Z,994.16
2018-11-10T11:58:24.549Z,994.20
2018-11-10T11:59:28.968Z,994.18
2018-11-10T12:00:34.467Z,994.17
2018-11-10T12:01:39.992Z,994.16
2018-11-10T12:02:45.499Z,994.15
2018-11-10T12:03:51.009Z,994.14
2018-11-10T12:04:57.533Z,994.15
2018-11-10T12:06:02.056Z,994.12
2018-11-10T12:07:07.559Z,994.11
2018-11-10T12:08:13.059Z,994.04
2018-11-10T12:09:18.576Z,994.11
2018-11-10T12:10:24.091Z,994.18
2018-11-10T12:11:30.614Z,994.15
2018-11-10T12:12:35.117Z,994.10
2018-11-10T12:13:40.633Z,994.17
2018-11-10T12:14:46.151Z,994.10
2018-11-10T12:15:51.680Z,994.07
2018-11-10T12:16:57.233Z,994.08
2018-11-10T12:18:03.700Z,994.00
2018-11-10T12:19:08.199Z,994.04
2018-11-10T12:20:13.716Z,994.05
2018-11-10T12:21:19.220Z,994.02
2018-11-10T12:22:24.743Z,994.07
2018-11-10T12:23:30.249Z,994.05
2018-11-10T12:24:36.772Z,994.02
2018-11-10T12:25:41.280Z,993.97
2018-11-10T12:26:46.878Z,993.95
2018-11-10T12:27:52.331Z,994.05
2018-11-10T12:28:57.823Z,993.98
2018-11-10T12:30:03.330Z,993.96
2018-11-10T12:31:09.851Z,993.97
2018-11-10T12:32:14.358Z,994.00
2018-11-10T12:33:19.870Z,993.95
2018-11-10T12:34:25.388Z,994.01
2018-11-10T12:35:30.894Z,993.97
2018-11-10T12:36:36.409Z,994.01
2018-11-10T12:37:42.933Z,993.97
2018-11-10T12:38:47.476Z,994.00
2018-11-10T12:39:52.957Z,994.03
2018-11-10T12:40:58.464Z,994.03
2018-11-10T12:42:03.987Z,993.98
2018-11-10T12:43:09.491Z,994.00
2018-11-10T12:44:16.025Z,993.97
2018-11-10T12:45:20.529Z,993.92
2018-11-10T12:46:26.061Z,993.92
2018-11-10T12:47:31.566Z,993.95
2018-11-10T12:48:37.053Z,993.92
2018-11-10T12:49:42.566Z,993.98
2018-11-10T12:50:49.105Z,993.95
2018-11-10T12:51:53.599Z,993.92
2018-11-10T12:52:59.104Z,993.88
2018-11-10T12:54:04.624Z,993.92
2018-11-10T12:55:10.191Z,993.88
2018-11-10T12:56:15.648Z,993.90
2018-11-10T12:57:22.174Z,993.86
2018-11-10T12:58:26.676Z,993.87
2018-11-10T12:59:32.188Z,993.85
2018-11-10T13:00:37.703Z,993.81
2018-11-10T13:01:43.215Z,993.85
2018-11-10T13:02:48.726Z,993.82
2018-11-10T13:03:55.257Z,993.80
2018-11-10T13:04:59.758Z,993.76
2018-11-10T13:06:05.267Z,993.80
2018-11-10T13:07:10.818Z,993.74
2018-11-10T13:08:16.368Z,993.79
2018-11-10T13:09:21.803Z,993.78
2018-11-10T13:10:28.335Z,993.71
2018-11-10T13:11:33.033Z,993.76
2018-11-10T13:12:38.350Z,993.75
2018-11-10T13:13:43.861Z,993.71
2018-11-10T13:14:49.382Z,993.72
2018-11-10T13:15:54.896Z,993.65
2018-11-10T13:17:01.413Z,993.63
2018-11-10T13:18:05.938Z,993.64
2018-11-10T13:19:11.431Z,993.67
2018-11-10T13:20:16.942Z,993.59
2018-11-10T13:21:22.454Z,993.54
2018-11-10T13:22:27.964Z,993.58
2018-11-10T13:23:34.492Z,993.61
2018-11-10T13:24:38.992Z,993.60
2018-11-10T13:25:44.507Z,993.60
2018-11-10T13:26:50.025Z,993.59
2018-11-10T13:27:55.531Z,993.60
2018-11-10T13:29:01.045Z,993.56
2018-11-10T13:30:07.570Z,993.56
2018-11-10T13:31:12.157Z,993.56
2018-11-10T13:32:17.586Z,993.56
2018-11-10T13:33:23.120Z,993.52
2018-11-10T13:34:28.616Z,993.49
2018-11-10T13:35:34.127Z,993.47
2018-11-10T13:36:40.649Z,993.46
2018-11-10T13:37:45.205Z,993.46